MyTimes logo

TIMES

Webb Imagery

31/01/2009
Channel Challenge
550m Swim / 2.0km Run - Local Residents

(Click on competitor name to view personalised results)

Name
Race #
Category
Time
(h:mm:ss)
Avg Speed
km/hr
OAll
Place
Cat
Place
ROWE Mark#32Senior Male0:12:31 12.2 11
GUILLE Tim#1Senior Male0:13:03 11.7 22
PLANT Luke#601Junior Male0:13:19 11.5 31
BUTT Chloe#329Senior Female0:14:07 10.8 41
FLEISNER Rob#627Male 40-490:14:08 10.8 51
DALLINGER Andrew#52Senior Male0:14:18 10.7 63
EVANS Brad#682Male 40-490:14:25 10.6 72
STOCK Adam#115Senior Male0:14:34 10.5 84
CORBETT Jim#716Male 40-490:14:41 10.4 93
YUSKO Bill#723Male 50+0:14:44 10.4 101
OLDEN Josh#173Senior Male0:14:58 10.2 115
TILLEY Justin#130Senior Male0:15:03 10.2 126
TYLER Jonathan#30Senior Male0:15:20 10 137
LOVE Nathan#756Junior Male0:15:20 10 142
DALLINGER Chris#201Senior Male0:15:21 10 158
BUTHER Chris#7Senior Male0:15:26 9.9 169
HEWETT Dean#691Junior Male0:15:31 9.9 173
WRIGHT Carl#136Senior Male0:15:32 9.8 1810
HOMER Ivan#634Male 40-490:15:41 9.8 194
DAVIE Krystal#500Junior Female0:15:45 9.7 201
MANTEIT Alexander#703Junior Male0:15:50 9.7 214
MATTHEWS Jack#44Senior Male0:15:59 9.6 2211
HUTCHINSON Warwick#639Male 40-490:15:59 9.6 235
MANTEIT Michael#702Junior Male0:16:06 9.5 245
CININAS Travis#679Junior Male0:16:07 9.5 256
VERNON Beau#164Senior Male0:16:08 9.5 2612
BOND Marcus#67Senior Male0:16:11 9.5 2713
HARRISON Hamish#214Senior Male0:16:13 9.4 2814
MARTIN Brian#745Male 40-490:16:27 9.3 296
CROWE Susie#468Junior Female0:16:28 9.3 302
MC FEE Andy#157Senior Male0:16:33 9.2 3115
BURGGRAAFF Andrew#626Male 40-490:16:34 9.2 327
WALDER Mitch#127Senior Male0:16:40 9.2 3316
O'HALLORAN Brett#76Senior Male0:16:46 9.1 3417
HEWETT Noel#690Male 40-490:16:50 9.1 358
CHISHOLM Andy#146Senior Male0:16:51 9.1 3618
BALMER Iain#118Senior Male0:16:52 9.1 3719
MANTEIT Mark#704Male 50+0:16:53 9.1 382
BURT Melissa#497Senior Female0:16:56 9 392
MARTIN David#10Senior Male0:17:02 9 4020
GRENVILLE Jamie#56Senior Male0:17:10 8.9 4121
MATTHEWS Aaron#132Senior Male0:17:10 8.9 4222
TAYLOR Matilda#397Senior Female0:17:20 8.8 433
CONNELL Lachie#605Junior Male0:17:23 8.8 447
MARSHALL Luke#137Senior Male0:17:26 8.8 4523
RIELLY Debbie#486Female 40-490:17:26 8.8 461
OLSEN Andrea#424Senior Female0:17:31 8.7 474
DAVIE Angie#304Female 40-490:17:38 8.7 482
BLANKENSTEIN Tim#6Senior Male0:17:41 8.7 4924
HOWARTH Terry#169Senior Male0:17:42 8.6 5025
BOURKE Lucy#469Senior Female0:17:43 8.6 515
PLANT Cassie#425Senior Female0:17:53 8.6 526
KAYE-HELMOT Georgia#498Junior Female0:17:54 8.5 533
FLEISNER Paul#660Male 50+0:17:59 8.5 543
DAVIE Jasmine#499Junior Female0:18:01 8.5 554
CROWE Damien#750Male 50+0:18:02 8.5 564
THOMPSON David#638Male 40-490:18:03 8.5 579
RIORDAN Scott#121Senior Male0:18:08 8.4 5826
BILL Greg#168Senior Male0:18:09 8.4 5927
CAMERON Jane#404Female 40-490:18:11 8.4 603
CROWE Jessica#467Senior Female0:18:15 8.4 617
HILL Zac#720Junior Male0:18:19 8.4 628
TAYLOR Cheryl#398Female 40-490:18:37 8.2 634
MAIER David#715Male 40-490:18:37 8.2 6410
MANNING Simon#677Male 40-490:18:41 8.2 6511
WILLIAMS Dwayne#160Senior Male0:18:42 8.2 6628
FISHER Kevin#772Male 40-490:18:43 8.2 6712
WOODWARD Andrew#737Male 40-490:18:44 8.2 6813
DAFF Geoff#681Male 50+0:18:45 8.2 695
TURNER Bridget#408Junior Female0:18:52 8.1 705
SCOTT Beth#508Junior Female0:18:56 8.1 716
HAIN Jacqui#415Senior Female0:19:00 8.1 728
FITZGERALD Amy#364Senior Female0:19:07 8 739
HOMER Jack#609Junior Male0:19:17 7.9 749
STAFFORD Rachel#405Senior Female0:19:36 7.8 7510
O'DONOHUE Mark#635Male 40-490:19:41 7.8 7614
COUCH Fraser#710Junior Male0:19:42 7.8 7710
WILLMOTT Rebecca#442Senior Female0:19:52 7.7 7811
SUTHERLAND Michael#198Senior Male0:20:05 7.6 7929
FLETCHER Michael#707Male 40-490:20:05 7.6 8015
HARRIS Michelle#384Senior Female0:20:11 7.6 8112
MARUM Justin#490Senior Female0:20:12 7.6 8213
MORRISON Kerry#507Female 50+0:20:14 7.6 831
MATTHEWS Robert#664Male 50+0:20:15 7.6 846
GROLBY Mitchell#721Junior Male0:20:23 7.5 8511
SMITH Dylan#672Junior Male0:20:24 7.5 8612
FERGIE Fleur#494Senior Female0:20:27 7.5 8714
ADAMS Murray#666Male 50+0:20:27 7.5 887
PATERSON Wade#142Senior Male0:20:32 7.5 8930
SIBLY Clare#365Senior Female0:20:38 7.4 9015
ANDERS Tully#689Junior Male0:20:47 7.4 9113
HOMER Max#610Junior Male0:20:53 7.3 9214
STANDISH Lyndal#477Senior Female0:20:54 7.3 9316
SMITH Harriet#504Junior Female0:20:54 7.3 947
WILLIAMS Peter#711Male 40-490:20:55 7.3 9516
DAFF Jessica#470Senior Female0:20:58 7.3 9617
SMITH Paul#673Male 50+0:21:00 7.3 978
ASBURY Lyle#170Senior Male0:21:05 7.3 9831
TYRRELL Sarah#420Senior Female0:21:06 7.3 9918
MARSHALL Sarah#419Senior Female0:21:11 7.2 10019
BREMNER James#73Senior Male0:21:18 7.2 10132
BAXTER Virginia#433Female 40-490:21:19 7.2 1025
MACARTNEY Aimee#417Senior Female0:21:20 7.2 10320
HOPKINS Barry#705Male 50+0:21:21 7.2 1049
CAIN Greg#669Male 50+0:21:23 7.2 10510
MOORE Kellie#463Senior Female0:21:24 7.1 10621
WALDER Charles#718Male 40-490:21:24 7.1 10717
HILL Luke#739Male 40-490:21:25 7.1 10818
DALLINGER Brian#770Male 50+0:21:28 7.1 10911
HIBBIE Jenny#448Female 40-490:21:32 7.1 1106
FITZGERALD Rick#654Male 50+0:21:38 7.1 11112
O'SULLIVAN Kelly#371Senior Female0:21:53 7 11222
ADKINS Susan#302Female 40-490:22:12 6.9 1137
WRIGHT Bruce#671Male 40-490:22:29 6.8 11419
GOODE Thomas#656Male 50+0:23:15 6.6 11513
BAILEY Annie#315Female 40-490:23:50 6.4 1168
DALVEAN Brooke#381Senior Female0:23:54 6.4 11723
KEWMING Robyn#491Female 50+0:24:00 6.4 1182
SUMMERFIELD Wayne#693Male 40-490:24:11 6.3 11920
BAYLIS Dannielle#495Senior Female0:24:13 6.3 12024
WILLIAMS Estelle#466Senior Female0:24:28 6.3 12125
LEGGETT Suzanne#318Female 50+0:24:49 6.2 1223
CLARK Bruce#650Male 40-490:25:20 6 12321
EMMANOUIL Nia#368Senior Female0:25:27 6 12426
SCOTT Mitchell#210Senior Male0:25:50 5.9 12533
ROBBINS Larissa#378Senior Female0:25:52 5.9 12627
WING Rebecca#357Senior Female0:25:58 5.9 12728
NEWMAN Chris#732Male 50+0:26:48 5.7 12814
DYNON Paul#648Male 40-490:28:36 5.3 12922
WILLIS Eddy#455Male 50+0:30:54 5 13015
GERMAIN Nicole#440Senior Female0:30:56 4.9 13129
WALKER Christine#399Female 50+0:32:23 4.7 1324
BATTY Deb#456Female 40-490:32:23 4.7 1339
HORROCKS Mark#749Male 50+0:36:23 4.2 13416